Plumerville, AR (72127)

5:28 AM CDT on July 31, 2016 (GMT -0500)
Overcup | | Change Station

Elev 397 ft 35.22 °N, 92.68 °W | Updated 7 minutes ago

Mostly Cloudy
Mostly Cloudy
71.2 °F
Feels Like 71.2 °F
N
6.3
Wind Variable Wind from NW

Today
High -- | Low -- °F
--% Chance of Precip.
Yesterday
High -- | Low -- °F
Precip. -- in
Pressure 29.97 in
Visibility 10.0 miles
Clouds Mostly Cloudy 7000 ft
Dew Point 71 °F
Humidity 99%
Rainfall 0.09 in
Snow Depth Not available.
6:19 AM 8:14 PM
Waning Crescent, 7% visible
METAR KRUE 310953Z AUTO 11003KT 10SM BKN070 23/22 A2999 RMK AO2 RAE17 SLP149 P0000 T02280217 TSNO $
Pressure 29.97 in
Visibility 10.0 miles
Clouds Mostly Cloudy 7000 ft
Dew Point 71 °F
Humidity 99%
Rainfall 0.09 in
Snow Depth Not available.
6:19 AM 8:14 PM
Waning Crescent, 7% visible
METAR KRUE 310953Z AUTO 11003KT 10SM BKN070 23/22 A2999 RMK AO2 RAE17 SLP149 P0000 T02280217 TSNO $

10-Day Weather Forecast

Almanac

Astronomy

Jul. 31, 2016 Rise Set
Actual Time
Civil Twilight
Nautical Twilight
Astronomical Twilight
Moon
Length of Visible Light
Length of Day
Tomorrow will be .
, % of the Moon is Illuminated

Today's Extremes

State Highs State Lows

Community

WunderPhotos

Upload Photos

1,928,778 photos uploaded!

WunderBlog® & News

Nearby

Air Quality

  Air Quality AQ Index Pollutant
Not available.

Snow Depth

Station Depth Elevation

Earthquake Activity

City Distance Mag. Time & Date
Minimum magnitude displayed is 2.5.

Coastal Water Temperatures

Place Temperature

Stations

Nearby Weather Stations

Station Location Temp. Windchill Dew Point Humidity Wind Precip. Elev Updated Type
                   

Watches & Warnings

There are currently no watches in effect.